LEALLEGE

Guest
Details From LEAL - Alicante
To LEGE - Girona
Flight Number -
Tags decoded
Created
Modified
Stats Distance 357 nm / 660 km
Max Altitude 0 ft / 0 m
Waypoints 6
Social Downloads 0
Likes 0
Share VATSIM

Download

Looking for another format? Having issues loading an existing format? Contact us
Advertisement - Login to hide

Notes

Requested: LEAL SOPET EBROX GEANT KANIG LEGE

Route

LEAL SOPET EBROX GEANT KANIG LEGE

ID Type Via Altitude Latitude Longitude Leg Dist Tot Dist Heading (true) Name
O LEAL APT - 0 ft / 0 m 38.28217˚ -0.55816˚ - 0 nm - Alicante
SOPET FIX - 0 ft / 0 m 39.83384˚ -0.00468˚ 96 nm 96 nm 15° / 16° -
EBROX FIX - 0 ft / 0 m 40.70873˚ 1.23178˚ 77 nm 173 nm 47° / 48° -
GEANT FIX - 0 ft / 0 m 42.43334˚ 2.21642˚ 112 nm 286 nm 23° / 23° -
KANIG FIX - 0 ft / 0 m 42.48031˚ 2.98317˚ 34 nm 320 nm 85° / 86° -
O LEGE APT - 0 ft / 0 m 41.90520˚ 2.76213˚ 35 nm 356 nm 196° / 196° Girona

Altitude Profile

Advertisement - Login to hide

Weather


0- 5 10 15 20 25 30 35+ Temperature / ° C

Clouds and Precipitation
Forecast for 2017-12-12 18:00 UTC. Updated 30 minutes ago

Ground ~20,000 ft ~40,000 ft Winds

LEAL

Details ICAO LEAL (ALC)
Name Alicante
Region Spain
Timezone Europe/Madrid (UTC+1.0)
Stats Elevation 141 ft / 43 m (AMSL)
Location 38.282169° -0.558157°
Runways 1
Magnetic Variation 0.183° E

METAR

LEAL 121730Z 32004KT 290V010 CAVOK 11/06 Q1019 NOSIG

Decode

TAF

TAF TAF LEAL 121100Z 1212/1312 30007KT 9999 FEW030 SCT050 TX16/1212Z TN04/1306Z TEMPO 1212/1218 12007KT

Decode

Departure Runways

ID Width Length Bearing (true) Bearing (mag) Surface Threshold Offset Overrun Length
10 148 ft / 45 m 9,799 ft / 2,987 m 100.07° 99.89° Asphalt 0 ft / 0 m 164 ft / 50 m
28 148 ft / 45 m 9,799 ft / 2,987 m 280.09° 279.91° Asphalt 0 ft / 0 m 197 ft / 60 m

LEGE

Details ICAO LEGE (GRO)
Name Girona
Region Spain
Timezone Europe/Madrid (UTC+1.0)
Stats Elevation 403 ft / 123 m (AMSL)
Location 41.905202° 2.762133°
Runways 1
Magnetic Variation 0.977° E

METAR

LEGE 121730Z 00000KT 9999 FEW070 04/02 Q1017

Decode

TAF

TAF LEGE 121100Z 1212/1312 VRB04KT 9999 SCT030 TX11/1212Z TNM01/1306Z TEMPO 1212/1218 02008KT 4000 SHRA FEW020TCU BKN025

Decode

Destination Runways

ID Width Length Bearing (true) Bearing (mag) Surface Threshold Offset Overrun Length
02 148 ft / 45 m 7,880 ft / 2,402 m 15.50° 14.52° Asphalt 0 ft / 0 m 210 ft / 64 m
20 148 ft / 45 m 7,880 ft / 2,402 m 195.50° 194.52° Asphalt 0 ft / 0 m 200 ft / 61 m

Approach Navaids

Runway Type Ident Frequency Range Bearing (true) Bearing (mag) Slope Elevation
20 Localiser IGN 109.90 MHz 18 nm / 33 km 195.60° 194.62° - 468 ft / 143 m (AMSL)
20 Glidescope IGN 109.90 MHz 10 nm / 19 km 195.50° 194.52° 3.00° 403 ft / 123 m (AMSL)
20 DME IGN 109.90 MHz 18 nm / 33 km - - - 463 ft / 141 m (AMSL)

Popular Alternatives